Time;durP1;ratioP1;P1;durP2;ratioP2;P2;SDS_P1;SDS_P2;PMS_P1;PMS_P2;Temp;Humidity;BMP_temperature;BMP_pressure;BME280_temperature;BME280_humidity;BME280_pressure;Samples;Min_cycle;Max_cycle;Signal;HPM_P1;HPM_P2
2021/01/10 00:01:15;;;;;;;81.22;42.08;;;;;;;;;;5056276;28;20411;-65
2021/01/10 00:03:41;;;;;;;77.03;40.78;;;;;;;;;;5056121;28;20059;-65
2021/01/10 00:06:07;;;;;;;75.47;40.55;;;;;;;;;;5054747;28;20032;-65
2021/01/10 00:08:33;;;;;;;78.20;41.97;;;;;;;;;;5054628;28;20029;-65
2021/01/10 00:10:58;;;;;;;78.75;43.28;;;;;;;;;;5055867;28;20024;-65
2021/01/10 00:13:24;;;;;;;72.93;37.95;;;;;;;;;;5055845;28;20029;-65
2021/01/10 00:15:49;;;;;;;69.82;38.22;;;;;;;;;;5054614;28;20055;-66
2021/01/10 00:18:15;;;;;;;71.35;37.30;;;;;;;;;;5055690;28;20071;-65
2021/01/10 00:20:40;;;;;;;80.70;39.88;;;;;;;;;;5053714;28;20107;-65
2021/01/10 00:23:06;;;;;;;79.95;40.42;;;;;;;;;;5055418;28;20033;-65
2021/01/10 00:25:31;;;;;;;75.68;38.78;;;;;;;;;;5055805;28;20055;-65
2021/01/10 00:28:00;;;;;;;71.45;36.80;;;;;;;;;;5055710;28;20040;-65
2021/01/10 00:30:26;;;;;;;65.28;33.88;;;;;;;;;;5055764;28;20024;-65
2021/01/10 00:32:52;;;;;;;59.85;30.92;;;;;;;;;;5054429;28;20090;-65
2021/01/10 00:35:18;;;;;;;62.95;32.78;;;;;;;;;;5055450;28;20032;-65
2021/01/10 00:37:51;;;;;;;61.33;31.88;;;;;;;;;;5055518;28;20021;-65
2021/01/10 00:40:18;;;;;;;57.67;30.63;;;;;;;;;;5054224;28;20091;-65
2021/01/10 00:42:44;;;;;;;76.80;35.45;;;;;;;;;;5054148;28;20031;-65
2021/01/10 00:45:10;;;;;;;144.70;52.83;;;;;;;;;;5055259;28;20060;-65
2021/01/10 00:47:35;;;;;;;117.10;47.90;;;;;;;;;;5055302;28;20099;-64
2021/01/10 00:50:03;;;;;;;121.80;50.53;;;;;;;;;;5054051;28;20387;-65
2021/01/10 00:52:30;;;;;;;148.25;54.75;;;;;;;;;;5053912;28;20479;-65
2021/01/10 00:54:56;;;;;;;134.18;54.53;;;;;;;;;;5054675;28;20037;-65
2021/01/10 00:57:22;;;;;;;137.73;55.92;;;;;;;;;;5053834;28;20099;-65
2021/01/10 00:59:48;;;;;;;151.02;59.42;;;;;;;;;;5053752;28;20060;-65
2021/01/10 01:02:18;;;;;;;125.05;51.63;;;;;;;;;;5053782;28;20116;-66
2021/01/10 01:04:51;;;;;;;122.75;51.30;;;;;;;;;;5053775;28;20090;-65
2021/01/10 01:07:18;;;;;;;131.40;54.30;;;;;;;;;;5053574;28;20039;-65
2021/01/10 01:09:46;;;;;;;132.32;54.53;;;;;;;;;;5053649;28;20113;-65
2021/01/10 01:12:11;;;;;;;123.18;54.17;;;;;;;;;;5055079;28;20121;-65
2021/01/10 01:14:37;;;;;;;132.48;57.75;;;;;;;;;;5053305;28;20529;-65
2021/01/10 01:17:02;;;;;;;133.07;55.33;;;;;;;;;;5054811;28;20483;-65
2021/01/10 01:19:32;;;;;;;160.05;59.70;;;;;;;;;;5053625;28;20056;-65
2021/01/10 01:22:00;;;;;;;127.22;54.20;;;;;;;;;;5054586;28;20029;-65
2021/01/10 01:24:25;;;;;;;119.80;52.88;;;;;;;;;;5054658;28;20020;-65
2021/01/10 01:26:51;;;;;;;180.02;69.07;;;;;;;;;;5054535;28;20044;-65
2021/01/10 01:29:16;;;;;;;134.75;57.88;;;;;;;;;;5054591;28;20036;-64
2021/01/10 01:31:42;;;;;;;127.95;56.00;;;;;;;;;;5053287;28;20032;-64
2021/01/10 01:34:07;;;;;;;132.13;58.63;;;;;;;;;;5053421;28;20021;-64
2021/01/10 01:36:33;;;;;;;119.57;56.15;;;;;;;;;;5054485;28;20428;-65
2021/01/10 01:38:59;;;;;;;115.28;55.05;;;;;;;;;;5054239;28;20079;-64
2021/01/10 01:41:25;;;;;;;111.75;51.95;;;;;;;;;;5052925;28;20053;-65
2021/01/10 01:43:50;;;;;;;97.53;45.60;;;;;;;;;;5054196;28;20052;-65
2021/01/10 01:46:32;;;;;;;90.50;42.85;;;;;;;;;;5052876;28;20033;-65
2021/01/10 01:48:58;;;;;;;84.60;41.80;;;;;;;;;;5054245;28;20033;-65
2021/01/10 01:51:25;;;;;;;87.18;41.30;;;;;;;;;;5052823;28;20021;-65
2021/01/10 01:53:50;;;;;;;81.95;40.28;;;;;;;;;;5052249;28;20053;-65
2021/01/10 01:56:16;;;;;;;86.72;41.35;;;;;;;;;;5052789;28;20029;-65
2021/01/10 01:58:58;;;;;;;86.38;40.63;;;;;;;;;;5053938;28;20429;-65
2021/01/10 02:01:24;;;;;;;82.45;40.38;;;;;;;;;;5054025;28;20032;-65
2021/01/10 02:04:19;;;;;;;81.25;40.33;;;;;;;;;;5053762;28;20017;-66
2021/01/10 02:07:04;;;;;;;77.70;38.90;;;;;;;;;;5048378;28;20107;-66
2021/01/10 02:09:31;;;;;;;83.20;41.45;;;;;;;;;;5052197;28;20037;-66
2021/01/10 02:12:01;;;;;;;87.32;41.30;;;;;;;;;;5053608;28;20075;-66
2021/01/10 02:14:29;;;;;;;84.35;41.60;;;;;;;;;;5053591;28;20033;-66
2021/01/10 02:16:55;;;;;;;74.28;38.63;;;;;;;;;;5053582;28;20047;-66
2021/01/10 02:19:22;;;;;;;77.13;38.67;;;;;;;;;;5053549;28;20025;-66
2021/01/10 02:21:52;;;;;;;83.10;41.30;;;;;;;;;;5053567;28;20466;-65
2021/01/10 02:24:19;;;;;;;77.65;39.80;;;;;;;;;;5053637;28;20036;-65
2021/01/10 02:26:45;;;;;;;80.55;39.58;;;;;;;;;;5053391;28;20070;-65
2021/01/10 02:29:11;;;;;;;71.93;36.25;;;;;;;;;;5053316;28;20064;-65
2021/01/10 02:31:40;;;;;;;74.35;36.58;;;;;;;;;;5053443;28;20013;-66
2021/01/10 02:34:07;;;;;;;69.65;35.70;;;;;;;;;;5053320;28;20039;-66
2021/01/10 02:36:36;;;;;;;62.17;34.28;;;;;;;;;;5051928;28;20040;-65
2021/01/10 02:39:02;;;;;;;75.65;36.33;;;;;;;;;;5051836;28;20112;-65
2021/01/10 02:41:37;;;;;;;69.63;35.25;;;;;;;;;;5051840;28;20068;-65
2021/01/10 02:44:21;;;;;;;71.57;35.92;;;;;;;;;;5052848;28;20099;-65
2021/01/10 02:46:51;;;;;;;70.28;36.00;;;;;;;;;;5053117;28;20123;-65
2021/01/10 02:49:16;;;;;;;69.68;35.13;;;;;;;;;;5053020;28;20029;-64
2021/01/10 02:51:42;;;;;;;69.07;35.25;;;;;;;;;;5053286;28;20386;-63
2021/01/10 02:54:08;;;;;;;66.03;34.47;;;;;;;;;;5052600;28;20041;-63
2021/01/10 02:56:37;;;;;;;72.53;34.60;;;;;;;;;;5051844;28;20049;-63
2021/01/10 02:59:03;;;;;;;70.28;35.00;;;;;;;;;;5053171;28;20017;-65
2021/01/10 03:01:29;;;;;;;70.53;34.13;;;;;;;;;;5052990;28;20128;-64
2021/01/10 03:03:55;;;;;;;68.68;34.28;;;;;;;;;;5052967;28;20048;-64
2021/01/10 03:06:21;;;;;;;68.18;33.92;;;;;;;;;;5052875;28;20025;-65
2021/01/10 03:08:47;;;;;;;69.93;33.63;;;;;;;;;;5053034;28;20047;-65
2021/01/10 03:11:13;;;;;;;71.55;34.78;;;;;;;;;;5052974;28;20040;-65
2021/01/10 03:13:39;;;;;;;68.78;34.45;;;;;;;;;;5052805;28;20379;-65
2021/01/10 03:16:04;;;;;;;63.47;33.05;;;;;;;;;;5052963;28;20391;-66
2021/01/10 03:18:30;;;;;;;64.13;30.33;;;;;;;;;;5052934;28;20108;-66
2021/01/10 03:20:55;;;;;;;60.15;31.60;;;;;;;;;;5051604;28;20025;-66
2021/01/10 03:23:25;;;;;;;66.07;34.53;;;;;;;;;;5052482;28;20147;-67
2021/01/10 03:25:51;;;;;;;74.73;36.17;;;;;;;;;;5052852;28;20041;-67
2021/01/10 03:28:20;;;;;;;72.72;37.15;;;;;;;;;;5052752;28;20401;-66
2021/01/10 03:30:46;;;;;;;69.20;34.55;;;;;;;;;;5052801;28;20060;-67
2021/01/10 03:33:11;;;;;;;72.82;36.90;;;;;;;;;;5052687;28;20075;-67
2021/01/10 03:35:37;;;;;;;76.75;37.75;;;;;;;;;;5052654;28;20036;-67
2021/01/10 03:38:03;;;;;;;74.78;38.65;;;;;;;;;;5052661;28;20485;-66
2021/01/10 03:40:29;;;;;;;78.57;37.53;;;;;;;;;;5052983;28;20021;-66
2021/01/10 03:42:54;;;;;;;66.15;34.95;;;;;;;;;;5052642;28;20376;-66
2021/01/10 03:45:20;;;;;;;71.55;35.05;;;;;;;;;;5052518;28;20029;-67
2021/01/10 03:47:45;;;;;;;69.95;34.42;;;;;;;;;;5052589;28;20068;-65
2021/01/10 03:50:11;;;;;;;69.63;35.58;;;;;;;;;;5052614;28;20040;-66
2021/01/10 03:52:36;;;;;;;69.38;34.88;;;;;;;;;;5052592;28;20020;-66
2021/01/10 03:55:06;;;;;;;67.72;34.13;;;;;;;;;;5052130;28;20395;-66
2021/01/10 03:57:32;;;;;;;72.90;35.60;;;;;;;;;;5055101;28;20021;-66
2021/01/10 03:59:57;;;;;;;71.25;37.13;;;;;;;;;;5056180;28;20031;-66
2021/01/10 04:02:23;;;;;;;69.68;34.92;;;;;;;;;;5056044;28;20021;-66
2021/01/10 04:04:48;;;;;;;68.07;34.70;;;;;;;;;;5056042;28;20056;-65
2021/01/10 04:07:13;;;;;;;72.25;35.40;;;;;;;;;;5055990;28;20020;-65
2021/01/10 04:09:39;;;;;;;72.63;35.78;;;;;;;;;;5056052;28;20033;-65
2021/01/10 04:12:05;;;;;;;77.85;37.40;;;;;;;;;;5056086;28;20028;-64
2021/01/10 04:14:30;;;;;;;71.85;36.28;;;;;;;;;;5055954;28;20082;-65
2021/01/10 04:16:56;;;;;;;72.93;35.95;;;;;;;;;;5055522;28;20070;-64
2021/01/10 04:19:21;;;;;;;78.18;37.20;;;;;;;;;;5055855;28;20025;-65
2021/01/10 04:21:47;;;;;;;77.35;40.00;;;;;;;;;;5054231;28;20024;-65
2021/01/10 04:24:12;;;;;;;75.18;36.55;;;;;;;;;;5055855;28;20071;-65
2021/01/10 04:26:45;;;;;;;77.88;36.97;;;;;;;;;;5054475;28;20032;-65
2021/01/10 04:29:10;;;;;;;67.57;35.55;;;;;;;;;;5054357;28;20025;-65
2021/01/10 04:31:36;;;;;;;75.22;37.17;;;;;;;;;;5055644;28;20129;-66
2021/01/10 04:34:02;;;;;;;72.97;37.33;;;;;;;;;;5055552;28;20040;-66
2021/01/10 04:36:28;;;;;;;121.80;74.65;;;;;;;;;;5055671;28;20115;-65
2021/01/10 04:38:56;;;;;;;82.20;44.80;;;;;;;;;;5055535;28;20020;-67
2021/01/10 04:41:22;;;;;;;77.03;37.75;;;;;;;;;;5054141;28;20459;-66
2021/01/10 04:43:48;;;;;;;79.55;37.75;;;;;;;;;;5055431;28;20041;-66
2021/01/10 04:46:14;;;;;;;76.10;37.78;;;;;;;;;;5055287;28;20037;-66
2021/01/10 04:48:39;;;;;;;74.20;37.72;;;;;;;;;;5055442;28;20475;-65
2021/01/10 04:51:05;;;;;;;72.45;36.63;;;;;;;;;;5055381;28;20115;-65
2021/01/10 04:53:30;;;;;;;74.47;37.67;;;;;;;;;;5053783;28;20383;-66
2021/01/10 04:55:57;;;;;;;73.15;37.78;;;;;;;;;;5055243;28;20025;-66
2021/01/10 04:58:34;;;;;;;71.45;37.13;;;;;;;;;;5055141;28;20033;-66
2021/01/10 05:01:08;;;;;;;70.47;35.50;;;;;;;;;;5055096;28;20383;-67
2021/01/10 05:03:40;;;;;;;71.75;36.60;;;;;;;;;;5055056;28;20028;-67
2021/01/10 05:06:14;;;;;;;73.80;36.28;;;;;;;;;;5055051;28;20021;-68
2021/01/10 05:08:40;;;;;;;72.82;37.70;;;;;;;;;;5036984;28;20487;-68
2021/01/10 05:11:05;;;;;;;72.10;35.60;;;;;;;;;;5054650;28;20032;-68
2021/01/10 05:13:31;;;;;;;69.72;36.60;;;;;;;;;;5054850;28;20120;-67
2021/01/10 05:15:56;;;;;;;73.45;37.55;;;;;;;;;;5055162;28;20226;-68
2021/01/10 05:18:22;;;;;;;79.00;39.83;;;;;;;;;;5054648;28;20113;-68
2021/01/10 05:20:51;;;;;;;80.38;39.60;;;;;;;;;;5055168;28;20468;-67
2021/01/10 05:23:17;;;;;;;82.25;40.08;;;;;;;;;;5053408;28;20166;-67
2021/01/10 05:25:42;;;;;;;79.15;39.13;;;;;;;;;;5053555;28;20479;-67
2021/01/10 05:28:08;;;;;;;80.80;40.35;;;;;;;;;;5054447;28;20033;-67
2021/01/10 05:30:34;;;;;;;85.68;43.10;;;;;;;;;;5054288;28;20020;-66
2021/01/10 05:32:59;;;;;;;84.55;41.53;;;;;;;;;;5054299;28;20032;-65
2021/01/10 05:35:25;;;;;;;84.65;42.78;;;;;;;;;;5054448;28;20375;-64
2021/01/10 05:37:57;;;;;;;83.28;41.38;;;;;;;;;;5054416;28;20032;-64
2021/01/10 05:40:27;;;;;;;84.07;42.17;;;;;;;;;;5054455;28;20017;-76
2021/01/10 05:42:53;;;;;;;;;;;;;;;;;;5053683;28;20086;-66
2021/01/10 05:45:31;;;;;;;91.53;42.83;;;;;;;;;;5053113;28;19909;-65
2021/01/10 05:47:56;;;;;;;88.95;44.22;;;;;;;;;;5052955;28;20440;-65
2021/01/10 05:50:22;;;;;;;83.75;42.42;;;;;;;;;;5054001;28;20060;-66
2021/01/10 05:52:49;;;;;;;95.68;48.15;;;;;;;;;;5054184;28;20392;-66
2021/01/10 05:55:14;;;;;;;150.35;93.18;;;;;;;;;;5053518;28;20407;-75
2021/01/10 05:57:46;;;;;;;135.63;76.75;;;;;;;;;;5053896;28;20021;-76
2021/01/10 06:00:15;;;;;;;127.22;74.88;;;;;;;;;;5053868;28;20025;-75
2021/01/10 06:02:41;;;;;;;133.05;79.43;;;;;;;;;;5053812;28;20109;-74
2021/01/10 06:05:12;;;;;;;122.80;73.35;;;;;;;;;;5053891;28;20029;-74
2021/01/10 06:07:39;;;;;;;139.48;80.57;;;;;;;;;;5038741;28;20391;-74
2021/01/10 06:10:05;;;;;;;129.65;69.18;;;;;;;;;;5034031;28;20036;-74
2021/01/10 06:12:30;;;;;;;124.72;62.83;;;;;;;;;;5033883;28;20087;-74
2021/01/10 06:15:15;;;;;;;203.15;122.78;;;;;;;;;;5033678;28;20021;-74
2021/01/10 06:17:46;;;;;;;155.10;87.57;;;;;;;;;;5033886;28;20030;-74
2021/01/10 06:20:25;;;;;;;150.15;78.50;;;;;;;;;;5033220;28;20037;-73
2021/01/10 06:22:51;;;;;;;148.43;75.68;;;;;;;;;;5033494;28;20021;-73
2021/01/10 06:25:21;;;;;;;137.55;69.70;;;;;;;;;;5033637;28;20025;-73
2021/01/10 06:28:07;;;;;;;131.13;69.00;;;;;;;;;;5033548;28;20029;-73
2021/01/10 06:30:35;;;;;;;122.22;65.80;;;;;;;;;;5033203;28;20045;-73
2021/01/10 06:33:11;;;;;;;109.90;58.28;;;;;;;;;;5029762;28;20048;-70
2021/01/10 06:35:38;;;;;;;99.95;54.10;;;;;;;;;;5032188;28;20480;-73
2021/01/10 06:38:04;;;;;;;91.80;46.35;;;;;;;;;;5032627;28;20022;-74
2021/01/10 06:40:33;;;;;;;78.93;40.17;;;;;;;;;;5032362;28;20029;-74
2021/01/10 06:43:03;;;;;;;84.28;42.40;;;;;;;;;;5014676;28;20022;-74
2021/01/10 06:45:32;;;;;;;73.95;36.72;;;;;;;;;;5032494;28;20029;-73
2021/01/10 06:47:57;;;;;;;80.00;39.33;;;;;;;;;;5031107;28;20026;-73
2021/01/10 06:50:23;;;;;;;75.85;34.30;;;;;;;;;;5032381;28;20033;-74
2021/01/10 06:52:50;;;;;;;79.40;39.17;;;;;;;;;;5032065;28;20365;-74
2021/01/10 06:55:16;;;;;;;98.78;47.40;;;;;;;;;;5031966;28;20041;-73
2021/01/10 06:57:42;;;;;;;88.75;45.03;;;;;;;;;;5032159;28;20037;-73
2021/01/10 07:00:08;;;;;;;105.32;52.20;;;;;;;;;;5031085;28;20446;-73
2021/01/10 07:02:52;;;;;;;153.52;72.18;;;;;;;;;;5031313;28;20021;-73
2021/01/10 07:05:18;;;;;;;130.00;62.78;;;;;;;;;;5030953;28;20037;-66
2021/01/10 07:07:43;;;;;;;108.35;57.38;;;;;;;;;;5032001;28;20014;-66
2021/01/10 07:10:10;;;;;;;110.97;54.22;;;;;;;;;;5030876;28;20484;-66
2021/01/10 07:12:36;;;;;;;113.47;55.05;;;;;;;;;;5028449;28;20125;-66
2021/01/10 07:15:20;;;;;;;145.13;72.40;;;;;;;;;;5031909;28;20559;-66
2021/01/10 07:18:02;;;;;;;405.88;211.90;;;;;;;;;;5030965;28;20112;-66
2021/01/10 07:20:34;;;;;;;269.95;132.85;;;;;;;;;;5032208;28;20029;-65
2021/01/10 07:23:18;;;;;;;130.30;70.03;;;;;;;;;;5030226;28;20032;-65
2021/01/10 07:25:44;;;;;;;150.30;95.35;;;;;;;;;;5031917;28;20488;-65
2021/01/10 07:28:36;;;;;;;162.20;79.18;;;;;;;;;;5031880;28;20060;-65
2021/01/10 07:31:08;;;;;;;121.47;57.72;;;;;;;;;;5031653;28;20049;-65
2021/01/10 07:33:34;;;;;;;103.68;50.65;;;;;;;;;;5036003;28;20032;-65
2021/01/10 07:35:59;;;;;;;89.43;44.85;;;;;;;;;;5036047;28;20021;-65
2021/01/10 07:38:26;;;;;;;82.65;40.10;;;;;;;;;;5035740;28;20030;-66
2021/01/10 07:40:52;;;;;;;82.93;43.45;;;;;;;;;;5035839;28;20025;-72
2021/01/10 07:43:24;;;;;;;126.38;67.32;;;;;;;;;;5034057;28;20083;-68
2021/01/10 07:45:54;;;;;;;253.00;128.23;;;;;;;;;;5035592;28;20021;-72
2021/01/10 07:48:30;;;;;;;164.82;83.88;;;;;;;;;;5034308;28;20609;-72
2021/01/10 07:51:12;;;;;;;109.90;57.58;;;;;;;;;;5035732;28;20395;-72
2021/01/10 07:53:44;;;;;;;104.85;54.67;;;;;;;;;;5035190;28;20065;-70
2021/01/10 07:56:16;;;;;;;100.53;54.20;;;;;;;;;;5015646;28;20041;-70
2021/01/10 07:58:42;;;;;;;165.38;86.88;;;;;;;;;;5016024;28;20164;-70
2021/01/10 08:01:07;;;;;;;132.88;72.30;;;;;;;;;;5015356;28;20466;-64
2021/01/10 08:03:33;;;;;;;102.03;55.50;;;;;;;;;;5015840;28;20037;-70
2021/01/10 08:05:58;;;;;;;101.95;52.75;;;;;;;;;;5015525;28;20515;-70
2021/01/10 08:08:45;;;;;;;147.25;77.15;;;;;;;;;;5015326;28;20026;-70
2021/01/10 08:11:11;;;;;;;211.30;115.20;;;;;;;;;;4997403;28;20128;-70
2021/01/10 08:13:36;;;;;;;139.93;71.10;;;;;;;;;;5015195;28;20475;-69
2021/01/10 08:16:03;;;;;;;115.22;61.42;;;;;;;;;;5014060;28;20029;-70
2021/01/10 08:18:33;;;;;;;111.07;61.15;;;;;;;;;;5015403;28;20018;-70
2021/01/10 08:21:00;;;;;;;110.78;58.50;;;;;;;;;;5014993;28;20396;-69
2021/01/10 08:23:31;;;;;;;107.50;60.72;;;;;;;;;;5015949;28;20388;-71
2021/01/10 08:26:06;;;;;;;106.63;55.92;;;;;;;;;;5016096;28;20030;-70
2021/01/10 08:28:33;;;;;;;69.30;35.35;;;;;;;;;;5016023;28;20038;-70
2021/01/10 08:31:05;;;;;;;100.30;51.33;;;;;;;;;;5015956;28;20034;-70
2021/01/10 08:33:31;;;;;;;103.82;52.15;;;;;;;;;;5013250;28;20495;-70
2021/01/10 08:36:10;;;;;;;101.18;52.90;;;;;;;;;;5011554;28;20022;-70
2021/01/10 08:38:37;;;;;;;101.90;51.10;;;;;;;;;;5012137;28;20022;-70
2021/01/10 08:41:02;;;;;;;95.38;50.13;;;;;;;;;;5010637;28;20056;-70
2021/01/10 08:43:28;;;;;;;95.22;51.13;;;;;;;;;;5011957;28;20033;-70
2021/01/10 08:45:53;;;;;;;101.50;54.20;;;;;;;;;;5012543;28;20026;-70
2021/01/10 08:48:19;;;;;;;104.25;55.75;;;;;;;;;;5012969;28;20025;-70
2021/01/10 08:50:44;;;;;;;99.32;54.88;;;;;;;;;;5015073;28;20029;-70
2021/01/10 08:53:10;;;;;;;134.63;72.93;;;;;;;;;;5015033;28;20112;-70
2021/01/10 08:55:35;;;;;;;184.43;118.00;;;;;;;;;;5030813;28;20492;-70
2021/01/10 08:58:01;;;;;;;143.10;84.63;;;;;;;;;;5033940;28;20076;-70
2021/01/10 09:00:27;;;;;;;139.43;76.65;;;;;;;;;;5035167;28;20033;-70
2021/01/10 09:02:52;;;;;;;116.32;64.20;;;;;;;;;;5035032;28;20365;-70
2021/01/10 09:05:27;;;;;;;99.32;52.78;;;;;;;;;;5033850;28;20071;-70
2021/01/10 09:07:54;;;;;;;100.53;51.50;;;;;;;;;;5035175;28;20037;-71
2021/01/10 09:10:21;;;;;;;105.53;55.35;;;;;;;;;;5033785;28;20080;-71
2021/01/10 09:12:47;;;;;;;106.93;57.40;;;;;;;;;;5035031;28;20030;-71
2021/01/10 09:15:24;;;;;;;97.38;51.60;;;;;;;;;;5033676;28;20464;-71
2021/01/10 09:17:54;;;;;;;94.05;47.88;;;;;;;;;;5034911;28;20365;-71
2021/01/10 09:20:26;;;;;;;86.95;45.70;;;;;;;;;;5034856;28;20040;-70
2021/01/10 09:22:52;;;;;;;112.85;62.25;;;;;;;;;;5033447;28;20152;-70
2021/01/10 09:25:20;;;;;;;101.68;54.72;;;;;;;;;;5034752;28;20104;-70
2021/01/10 09:28:05;;;;;;;123.28;68.40;;;;;;;;;;5034811;28;20037;-71
2021/01/10 09:30:30;;;;;;;105.90;60.13;;;;;;;;;;5033397;28;20084;-70
2021/01/10 09:32:56;;;;;;;107.88;60.45;;;;;;;;;;5034663;28;20022;-71
2021/01/10 09:35:21;;;;;;;93.25;51.88;;;;;;;;;;5034607;28;20029;-71
2021/01/10 09:37:46;;;;;;;90.18;49.00;;;;;;;;;;5033187;28;20056;-70
2021/01/10 09:40:12;;;;;;;89.10;45.13;;;;;;;;;;5034293;28;20017;-70
2021/01/10 09:42:45;;;;;;;87.93;47.10;;;;;;;;;;5034782;28;20029;-69
2021/01/10 09:45:11;;;;;;;101.20;52.67;;;;;;;;;;5034523;28;20025;-70
2021/01/10 09:47:37;;;;;;;106.13;52.70;;;;;;;;;;5034088;28;20028;-70
2021/01/10 09:50:10;;;;;;;98.00;51.15;;;;;;;;;;5035132;28;20095;-69
2021/01/10 09:52:48;;;;;;;93.45;50.83;;;;;;;;;;5034810;28;20490;-69
2021/01/10 09:55:14;;;;;;;95.07;49.25;;;;;;;;;;5033398;28;20046;-70
2021/01/10 09:57:40;;;;;;;76.65;38.92;;;;;;;;;;5034368;28;20514;-70
2021/01/10 10:00:13;;;;;;;81.88;41.25;;;;;;;;;;5033021;28;20076;-70
2021/01/10 10:02:39;;;;;;;91.45;48.17;;;;;;;;;;5034482;28;20032;-70
2021/01/10 10:05:12;;;;;;;82.13;43.33;;;;;;;;;;5034366;28;20017;-70
2021/01/10 10:07:41;;;;;;;76.00;42.30;;;;;;;;;;5034222;28;20025;-70
2021/01/10 10:10:18;;;;;;;83.97;44.85;;;;;;;;;;5034009;28;20028;-70
2021/01/10 10:12:54;;;;;;;101.47;54.53;;;;;;;;;;5034349;28;20033;-70
2021/01/10 10:15:39;;;;;;;90.53;50.60;;;;;;;;;;5032934;28;20030;-70
2021/01/10 10:18:05;;;;;;;89.28;48.92;;;;;;;;;;5034038;28;20025;-71
2021/01/10 10:20:32;;;;;;;73.65;40.67;;;;;;;;;;5033848;28;20502;-71
2021/01/10 10:23:07;;;;;;;71.20;38.22;;;;;;;;;;5033841;28;20037;-71
2021/01/10 10:25:33;;;;;;;76.40;42.17;;;;;;;;;;5032712;28;20040;-67
2021/01/10 10:27:59;;;;;;;76.78;41.88;;;;;;;;;;5033888;28;20017;-66
2021/01/10 10:30:25;;;;;;;88.15;44.72;;;;;;;;;;5033761;28;20464;-67
2021/01/10 10:32:51;;;;;;;75.20;42.17;;;;;;;;;;5033719;28;20021;-67
2021/01/10 10:35:17;;;;;;;97.88;52.70;;;;;;;;;;5033448;28;20034;-67
2021/01/10 10:37:42;;;;;;;81.60;45.67;;;;;;;;;;5032068;28;20486;-67
2021/01/10 10:40:08;;;;;;;78.40;44.88;;;;;;;;;;5033405;28;20112;-67
2021/01/10 10:42:33;;;;;;;87.90;47.17;;;;;;;;;;5033429;28;20082;-68
2021/01/10 10:44:59;;;;;;;79.15;43.80;;;;;;;;;;5033520;28;20091;-67
2021/01/10 10:47:24;;;;;;;69.38;39.05;;;;;;;;;;5033513;28;20030;-67
2021/01/10 10:49:50;;;;;;;69.78;37.90;;;;;;;;;;5033594;28;20049;-68
2021/01/10 10:52:21;;;;;;;76.55;41.70;;;;;;;;;;5033560;28;20021;-68
2021/01/10 10:54:48;;;;;;;67.57;37.05;;;;;;;;;;5032870;28;20082;-69
2021/01/10 10:57:13;;;;;;;68.05;38.03;;;;;;;;;;5033378;28;20036;-68
2021/01/10 10:59:39;;;;;;;73.13;40.53;;;;;;;;;;5032301;28;20113;-68
2021/01/10 11:02:09;;;;;;;75.55;39.47;;;;;;;;;;5033527;28;20017;-68
2021/01/10 11:04:38;;;;;;;75.63;43.33;;;;;;;;;;5032182;28;20367;-68
2021/01/10 11:07:05;;;;;;;78.32;42.67;;;;;;;;;;5033030;28;20407;-68
2021/01/10 11:09:37;;;;;;;84.13;43.30;;;;;;;;;;5033215;28;20022;-68
2021/01/10 11:12:04;;;;;;;79.38;42.65;;;;;;;;;;5033449;28;20383;-68
2021/01/10 11:14:29;;;;;;;65.97;37.30;;;;;;;;;;5033019;28;20029;-68
2021/01/10 11:16:55;;;;;;;64.80;34.30;;;;;;;;;;5033185;28;20033;-68
2021/01/10 11:19:23;;;;;;;69.45;39.90;;;;;;;;;;5033342;28;20134;-67
2021/01/10 11:21:49;;;;;;;84.18;44.83;;;;;;;;;;5033301;28;20030;-67
2021/01/10 11:24:16;;;;;;;78.03;42.10;;;;;;;;;;5015195;28;20022;-68
2021/01/10 11:26:42;;;;;;;80.20;41.75;;;;;;;;;;5033281;28;20487;-68
2021/01/10 11:29:08;;;;;;;66.78;35.65;;;;;;;;;;5033282;28;20033;-68
2021/01/10 11:31:35;;;;;;;62.45;35.33;;;;;;;;;;5033168;28;20030;-67
2021/01/10 11:34:01;;;;;;;64.45;36.28;;;;;;;;;;5032940;28;20026;-67
2021/01/10 11:36:27;;;;;;;73.63;40.70;;;;;;;;;;5033068;28;20108;-67
2021/01/10 11:38:52;;;;;;;72.18;38.20;;;;;;;;;;5032787;28;20100;-67
2021/01/10 11:41:19;;;;;;;60.78;33.63;;;;;;;;;;5032833;28;20134;-67
2021/01/10 11:43:47;;;;;;;56.67;31.40;;;;;;;;;;5031767;28;20034;-67
2021/01/10 11:46:14;;;;;;;54.67;29.17;;;;;;;;;;5033173;28;20033;-69
2021/01/10 11:48:42;;;;;;;64.00;32.53;;;;;;;;;;5031779;28;20027;-68
2021/01/10 11:51:09;;;;;;;56.60;30.95;;;;;;;;;;5033047;28;20124;-68
2021/01/10 11:53:35;;;;;;;59.67;32.05;;;;;;;;;;5032652;28;20017;-68
2021/01/10 11:56:00;;;;;;;56.03;31.15;;;;;;;;;;5032542;28;20060;-68
2021/01/10 11:58:28;;;;;;;46.05;27.58;;;;;;;;;;5032711;28;20032;-68
2021/01/10 12:00:54;;;;;;;46.53;25.08;;;;;;;;;;5033016;28;20026;-68
2021/01/10 12:03:20;;;;;;;43.63;24.10;;;;;;;;;;5032789;28;20040;-67
2021/01/10 12:05:46;;;;;;;45.67;24.27;;;;;;;;;;5032821;28;20041;-67
2021/01/10 12:08:12;;;;;;;48.45;26.63;;;;;;;;;;5033087;28;20045;-67
2021/01/10 12:10:37;;;;;;;44.67;26.20;;;;;;;;;;5032838;28;20083;-67
2021/01/10 12:13:03;;;;;;;52.45;28.60;;;;;;;;;;5031752;28;20484;-67
2021/01/10 12:15:34;;;;;;;52.03;28.55;;;;;;;;;;5032539;28;20026;-67
2021/01/10 12:18:00;;;;;;;42.90;23.13;;;;;;;;;;5033299;28;20018;-68
2021/01/10 12:20:26;;;;;;;40.67;21.67;;;;;;;;;;5036281;28;20029;-66
2021/01/10 12:22:51;;;;;;;47.13;26.10;;;;;;;;;;5036171;28;20365;-66
2021/01/10 12:25:17;;;;;;;38.55;22.45;;;;;;;;;;5035987;28;20025;-67
2021/01/10 12:27:42;;;;;;;43.25;23.92;;;;;;;;;;5036002;28;20061;-67
2021/01/10 12:30:09;;;;;;;45.67;23.88;;;;;;;;;;5035971;28;20081;-67
2021/01/10 12:32:38;;;;;;;43.75;23.45;;;;;;;;;;5035947;28;20051;-67
2021/01/10 12:35:08;;;;;;;38.47;21.27;;;;;;;;;;5035385;28;20043;-67
2021/01/10 12:37:34;;;;;;;37.85;19.98;;;;;;;;;;5036029;28;20114;-67
2021/01/10 12:40:05;;;;;;;34.38;19.55;;;;;;;;;;5035927;28;20044;-67
2021/01/10 12:42:30;;;;;;;40.22;21.80;;;;;;;;;;5034706;28;20025;-67
2021/01/10 12:44:56;;;;;;;39.22;22.63;;;;;;;;;;5035812;28;20029;-67
2021/01/10 12:47:22;;;;;;;38.85;22.85;;;;;;;;;;5034190;28;20040;-67
2021/01/10 12:49:47;;;;;;;40.70;21.73;;;;;;;;;;5034280;28;20057;-67
2021/01/10 12:52:13;;;;;;;38.08;20.33;;;;;;;;;;5035729;28;20030;-67
2021/01/10 12:54:38;;;;;;;36.08;21.15;;;;;;;;;;5034840;28;20037;-68
2021/01/10 12:57:04;;;;;;;34.58;19.92;;;;;;;;;;5035415;28;20076;-67
2021/01/10 12:59:30;;;;;;;35.60;20.25;;;;;;;;;;5035459;28;20026;-68
2021/01/10 13:01:55;;;;;;;34.03;20.25;;;;;;;;;;5035235;28;20033;-68
2021/01/10 13:04:21;;;;;;;36.05;21.00;;;;;;;;;;5035331;28;20022;-71
2021/01/10 13:06:47;;;;;;;130.18;51.20;;;;;;;;;;5035065;28;20025;-71
2021/01/10 13:09:13;;;;;;;89.45;41.75;;;;;;;;;;5034173;28;20022;-71
2021/01/10 13:11:39;;;;;;;57.13;29.80;;;;;;;;;;5033969;28;20033;-71
2021/01/10 13:14:08;;;;;;;44.55;27.02;;;;;;;;;;5035138;28;20028;-68
2021/01/10 13:16:34;;;;;;;43.47;25.08;;;;;;;;;;5034999;28;20029;-68
2021/01/10 13:19:01;;;;;;;55.72;29.15;;;;;;;;;;5034827;28;20430;-68
2021/01/10 13:21:27;;;;;;;47.83;25.88;;;;;;;;;;5034919;28;20026;-68
2021/01/10 13:23:52;;;;;;;63.38;31.45;;;;;;;;;;5034620;28;20025;-67
2021/01/10 13:26:18;;;;;;;68.63;32.65;;;;;;;;;;5034895;28;20091;-68
2021/01/10 13:28:44;;;;;;;71.47;34.42;;;;;;;;;;5035071;28;20549;-68
2021/01/10 13:31:10;;;;;;;77.32;37.53;;;;;;;;;;5034306;28;20051;-70
2021/01/10 13:33:37;;;;;;;90.18;44.70;;;;;;;;;;5033228;28;20937;-70
2021/01/10 13:36:04;;;;;;;78.82;39.28;;;;;;;;;;5034172;28;20100;-68
2021/01/10 13:38:29;;;;;;;70.55;35.55;;;;;;;;;;5034175;28;20017;-68
2021/01/10 13:40:55;;;;;;;65.72;31.45;;;;;;;;;;5034535;28;20026;-68
2021/01/10 13:43:22;;;;;;;55.63;28.98;;;;;;;;;;5034600;28;20495;-68
2021/01/10 13:45:48;;;;;;;60.05;31.45;;;;;;;;;;5034873;28;20501;-68
2021/01/10 13:48:14;;;;;;;58.25;30.50;;;;;;;;;;5033435;28;20052;-68
2021/01/10 13:50:40;;;;;;;62.83;35.20;;;;;;;;;;5034611;28;20387;-67
2021/01/10 13:53:05;;;;;;;59.38;33.80;;;;;;;;;;5033196;28;20035;-67
2021/01/10 13:55:31;;;;;;;109.32;55.63;;;;;;;;;;5032382;28;20034;-67
2021/01/10 13:57:56;;;;;;;68.88;37.42;;;;;;;;;;5034432;28;20025;-67
2021/01/10 14:00:22;;;;;;;43.28;24.83;;;;;;;;;;5034406;28;20022;-66
2021/01/10 14:02:47;;;;;;;42.60;23.92;;;;;;;;;;5034701;28;20014;-67
2021/01/10 14:05:13;;;;;;;41.88;24.15;;;;;;;;;;5033351;28;20033;-67
2021/01/10 14:07:39;;;;;;;76.18;36.55;;;;;;;;;;5033068;28;20139;-66
2021/01/10 14:10:05;;;;;;;47.42;27.00;;;;;;;;;;5033455;28;20021;-65
2021/01/10 14:12:31;;;;;;;46.65;23.58;;;;;;;;;;5033628;28;20029;-66
2021/01/10 14:14:56;;;;;;;50.05;25.05;;;;;;;;;;5034317;28;20029;-66
2021/01/10 14:17:22;;;;;;;47.22;24.08;;;;;;;;;;5033933;28;20097;-66